sensor_id;sensor_type;location;lat;lon;timestamp;P1;durP1;ratioP1;P2;durP2;ratioP2
3465;SDS011;1747;48.884;9.160;2024-03-25T00:00:49;4.20;;;1.80;;
3465;SDS011;1747;48.884;9.160;2024-03-25T00:03:18;2.55;;;1.55;;
3465;SDS011;1747;48.884;9.160;2024-03-25T00:05:44;3.75;;;1.70;;
3465;SDS011;1747;48.884;9.160;2024-03-25T00:08:11;4.60;;;1.40;;
3465;SDS011;1747;48.884;9.160;2024-03-25T00:10:37;2.67;;;1.70;;
3465;SDS011;1747;48.884;9.160;2024-03-25T00:13:04;5.20;;;1.88;;
3465;SDS011;1747;48.884;9.160;2024-03-25T00:15:30;3.63;;;1.80;;
3465;SDS011;1747;48.884;9.160;2024-03-25T00:17:58;3.03;;;1.70;;
3465;SDS011;1747;48.884;9.160;2024-03-25T00:20:26;7.50;;;2.08;;
3465;SDS011;1747;48.884;9.160;2024-03-25T00:22:52;4.30;;;1.98;;
3465;SDS011;1747;48.884;9.160;2024-03-25T00:25:18;5.88;;;2.08;;
3465;SDS011;1747;48.884;9.160;2024-03-25T00:27:45;4.18;;;1.90;;
3465;SDS011;1747;48.884;9.160;2024-03-25T00:30:11;4.25;;;1.90;;
3465;SDS011;1747;48.884;9.160;2024-03-25T00:32:38;5.32;;;2.00;;
3465;SDS011;1747;48.884;9.160;2024-03-25T00:35:05;5.95;;;1.77;;
3465;SDS011;1747;48.884;9.160;2024-03-25T00:37:34;2.30;;;1.52;;
3465;SDS011;1747;48.884;9.160;2024-03-25T00:40:00;3.90;;;1.73;;
3465;SDS011;1747;48.884;9.160;2024-03-25T00:42:26;4.93;;;1.88;;
3465;SDS011;1747;48.884;9.160;2024-03-25T00:44:53;6.38;;;1.95;;
3465;SDS011;1747;48.884;9.160;2024-03-25T00:47:19;3.25;;;1.98;;
3465;SDS011;1747;48.884;9.160;2024-03-25T00:49:45;3.15;;;1.77;;
3465;SDS011;1747;48.884;9.160;2024-03-25T00:52:12;3.88;;;1.88;;
3465;SDS011;1747;48.884;9.160;2024-03-25T00:54:40;4.43;;;2.28;;
3465;SDS011;1747;48.884;9.160;2024-03-25T00:57:06;6.10;;;1.90;;
3465;SDS011;1747;48.884;9.160;2024-03-25T00:59:33;3.78;;;1.73;;
3465;SDS011;1747;48.884;9.160;2024-03-25T01:02:00;6.43;;;1.65;;
3465;SDS011;1747;48.884;9.160;2024-03-25T01:04:26;6.93;;;1.92;;
3465;SDS011;1747;48.884;9.160;2024-03-25T01:06:54;5.07;;;2.10;;
3465;SDS011;1747;48.884;9.160;2024-03-25T01:09:19;6.80;;;2.25;;
3465;SDS011;1747;48.884;9.160;2024-03-25T01:11:48;6.40;;;2.13;;
3465;SDS011;1747;48.884;9.160;2024-03-25T01:14:14;5.63;;;1.95;;
3465;SDS011;1747;48.884;9.160;2024-03-25T01:16:41;2.70;;;1.55;;
3465;SDS011;1747;48.884;9.160;2024-03-25T01:19:07;5.03;;;2.10;;
3465;SDS011;1747;48.884;9.160;2024-03-25T01:21:34;4.03;;;2.30;;
3465;SDS011;1747;48.884;9.160;2024-03-25T01:24:00;4.70;;;1.90;;
3465;SDS011;1747;48.884;9.160;2024-03-25T01:26:27;4.95;;;1.90;;
3465;SDS011;1747;48.884;9.160;2024-03-25T01:28:55;4.75;;;1.92;;
3465;SDS011;1747;48.884;9.160;2024-03-25T01:31:22;3.78;;;2.25;;
3465;SDS011;1747;48.884;9.160;2024-03-25T01:33:48;7.05;;;1.85;;
3465;SDS011;1747;48.884;9.160;2024-03-25T01:36:16;3.15;;;1.70;;
3465;SDS011;1747;48.884;9.160;2024-03-25T01:38:42;4.18;;;2.05;;
3465;SDS011;1747;48.884;9.160;2024-03-25T01:41:09;3.65;;;1.67;;
3465;SDS011;1747;48.884;9.160;2024-03-25T01:43:35;5.20;;;1.88;;
3465;SDS011;1747;48.884;9.160;2024-03-25T01:46:04;5.72;;;2.13;;
3465;SDS011;1747;48.884;9.160;2024-03-25T01:48:31;3.97;;;1.88;;
3465;SDS011;1747;48.884;9.160;2024-03-25T01:50:59;5.22;;;1.98;;
3465;SDS011;1747;48.884;9.160;2024-03-25T01:53:26;6.50;;;1.83;;
3465;SDS011;1747;48.884;9.160;2024-03-25T01:55:55;2.83;;;1.67;;
3465;SDS011;1747;48.884;9.160;2024-03-25T01:58:22;5.00;;;1.92;;
3465;SDS011;1747;48.884;9.160;2024-03-25T02:00:51;6.13;;;1.90;;
3465;SDS011;1747;48.884;9.160;2024-03-25T02:03:20;5.22;;;1.58;;
3465;SDS011;1747;48.884;9.160;2024-03-25T02:05:48;3.70;;;1.80;;
3465;SDS011;1747;48.884;9.160;2024-03-25T02:08:17;4.50;;;2.20;;
3465;SDS011;1747;48.884;9.160;2024-03-25T02:10:45;5.10;;;1.98;;
3465;SDS011;1747;48.884;9.160;2024-03-25T02:13:12;6.10;;;2.20;;
3465;SDS011;1747;48.884;9.160;2024-03-25T02:15:40;5.47;;;2.08;;
3465;SDS011;1747;48.884;9.160;2024-03-25T02:18:06;6.25;;;1.95;;
3465;SDS011;1747;48.884;9.160;2024-03-25T02:20:34;6.40;;;1.80;;
3465;SDS011;1747;48.884;9.160;2024-03-25T02:23:00;6.60;;;1.80;;
3465;SDS011;1747;48.884;9.160;2024-03-25T02:25:27;5.22;;;2.00;;
3465;SDS011;1747;48.884;9.160;2024-03-25T02:27:59;3.92;;;1.70;;
3465;SDS011;1747;48.884;9.160;2024-03-25T02:30:26;2.72;;;1.75;;
3465;SDS011;1747;48.884;9.160;2024-03-25T02:32:52;5.20;;;2.20;;
3465;SDS011;1747;48.884;9.160;2024-03-25T02:35:18;3.30;;;1.52;;
3465;SDS011;1747;48.884;9.160;2024-03-25T02:37:44;2.33;;;1.73;;
3465;SDS011;1747;48.884;9.160;2024-03-25T02:40:11;6.78;;;2.00;;
3465;SDS011;1747;48.884;9.160;2024-03-25T02:42:37;7.15;;;2.20;;
3465;SDS011;1747;48.884;9.160;2024-03-25T02:45:07;4.75;;;2.10;;
3465;SDS011;1747;48.884;9.160;2024-03-25T02:47:34;4.25;;;2.17;;
3465;SDS011;1747;48.884;9.160;2024-03-25T02:50:00;4.25;;;2.13;;
3465;SDS011;1747;48.884;9.160;2024-03-25T02:52:27;4.25;;;2.33;;
3465;SDS011;1747;48.884;9.160;2024-03-25T02:54:53;3.65;;;2.30;;
3465;SDS011;1747;48.884;9.160;2024-03-25T02:57:19;5.65;;;2.20;;
3465;SDS011;1747;48.884;9.160;2024-03-25T02:59:46;5.25;;;2.25;;
3465;SDS011;1747;48.884;9.160;2024-03-25T03:02:13;13.07;;;2.83;;
3465;SDS011;1747;48.884;9.160;2024-03-25T03:04:40;5.03;;;2.17;;
3465;SDS011;1747;48.884;9.160;2024-03-25T03:07:06;4.18;;;2.20;;
3465;SDS011;1747;48.884;9.160;2024-03-25T03:09:33;5.68;;;2.50;;
3465;SDS011;1747;48.884;9.160;2024-03-25T03:11:59;3.60;;;2.10;;
3465;SDS011;1747;48.884;9.160;2024-03-25T03:14:26;4.95;;;2.35;;
3465;SDS011;1747;48.884;9.160;2024-03-25T03:16:52;5.05;;;2.15;;
3465;SDS011;1747;48.884;9.160;2024-03-25T03:19:24;8.85;;;2.47;;
3465;SDS011;1747;48.884;9.160;2024-03-25T03:21:50;8.82;;;2.90;;
3465;SDS011;1747;48.884;9.160;2024-03-25T03:24:17;5.30;;;2.40;;
3465;SDS011;1747;48.884;9.160;2024-03-25T03:26:43;6.85;;;2.67;;
3465;SDS011;1747;48.884;9.160;2024-03-25T03:29:10;5.32;;;2.60;;
3465;SDS011;1747;48.884;9.160;2024-03-25T03:31:36;7.63;;;2.40;;
3465;SDS011;1747;48.884;9.160;2024-03-25T03:34:03;4.70;;;2.33;;
3465;SDS011;1747;48.884;9.160;2024-03-25T03:36:30;7.50;;;2.53;;
3465;SDS011;1747;48.884;9.160;2024-03-25T03:38:57;4.88;;;2.25;;
3465;SDS011;1747;48.884;9.160;2024-03-25T03:41:23;4.15;;;2.53;;
3465;SDS011;1747;48.884;9.160;2024-03-25T03:43:49;5.05;;;2.05;;
3465;SDS011;1747;48.884;9.160;2024-03-25T03:46:15;7.43;;;2.00;;
3465;SDS011;1747;48.884;9.160;2024-03-25T03:48:42;6.22;;;2.60;;
3465;SDS011;1747;48.884;9.160;2024-03-25T03:51:08;9.48;;;2.35;;
3465;SDS011;1747;48.884;9.160;2024-03-25T03:53:36;8.88;;;2.67;;
3465;SDS011;1747;48.884;9.160;2024-03-25T03:56:03;7.68;;;2.50;;
3465;SDS011;1747;48.884;9.160;2024-03-25T03:58:30;4.18;;;2.17;;
3465;SDS011;1747;48.884;9.160;2024-03-25T04:00:56;6.60;;;2.47;;
3465;SDS011;1747;48.884;9.160;2024-03-25T04:03:23;4.63;;;2.10;;
3465;SDS011;1747;48.884;9.160;2024-03-25T04:05:49;10.07;;;2.67;;
3465;SDS011;1747;48.884;9.160;2024-03-25T04:08:16;5.93;;;2.10;;
3465;SDS011;1747;48.884;9.160;2024-03-25T04:10:44;5.32;;;2.70;;
3465;SDS011;1747;48.884;9.160;2024-03-25T04:13:11;7.85;;;2.10;;
3465;SDS011;1747;48.884;9.160;2024-03-25T04:15:38;4.88;;;2.30;;
3465;SDS011;1747;48.884;9.160;2024-03-25T04:18:06;6.05;;;2.30;;
3465;SDS011;1747;48.884;9.160;2024-03-25T04:20:35;5.07;;;2.20;;
3465;SDS011;1747;48.884;9.160;2024-03-25T04:23:03;9.50;;;2.55;;
3465;SDS011;1747;48.884;9.160;2024-03-25T04:25:30;3.40;;;2.15;;
3465;SDS011;1747;48.884;9.160;2024-03-25T04:27:59;5.78;;;2.40;;
3465;SDS011;1747;48.884;9.160;2024-03-25T04:30:25;3.90;;;2.13;;
3465;SDS011;1747;48.884;9.160;2024-03-25T04:32:52;6.25;;;2.38;;
3465;SDS011;1747;48.884;9.160;2024-03-25T04:35:18;7.28;;;2.00;;
3465;SDS011;1747;48.884;9.160;2024-03-25T04:37:45;7.38;;;2.40;;
3465;SDS011;1747;48.884;9.160;2024-03-25T04:40:11;5.60;;;2.10;;
3465;SDS011;1747;48.884;9.160;2024-03-25T04:42:38;3.85;;;2.47;;
3465;SDS011;1747;48.884;9.160;2024-03-25T04:45:06;6.40;;;2.50;;
3465;SDS011;1747;48.884;9.160;2024-03-25T04:47:32;8.77;;;2.80;;
3465;SDS011;1747;48.884;9.160;2024-03-25T04:49:58;6.47;;;2.20;;
3465;SDS011;1747;48.884;9.160;2024-03-25T04:52:23;6.63;;;2.50;;
3465;SDS011;1747;48.884;9.160;2024-03-25T04:54:49;3.85;;;2.13;;
3465;SDS011;1747;48.884;9.160;2024-03-25T04:57:15;5.28;;;2.83;;
3465;SDS011;1747;48.884;9.160;2024-03-25T04:59:41;5.38;;;2.75;;
3465;SDS011;1747;48.884;9.160;2024-03-25T05:02:08;7.60;;;2.20;;
3465;SDS011;1747;48.884;9.160;2024-03-25T05:04:34;6.30;;;2.38;;
3465;SDS011;1747;48.884;9.160;2024-03-25T05:07:00;3.38;;;1.75;;
3465;SDS011;1747;48.884;9.160;2024-03-25T05:09:26;5.05;;;2.25;;
3465;SDS011;1747;48.884;9.160;2024-03-25T05:11:52;4.45;;;2.70;;
3465;SDS011;1747;48.884;9.160;2024-03-25T05:14:18;6.30;;;2.25;;
3465;SDS011;1747;48.884;9.160;2024-03-25T05:16:44;7.80;;;2.30;;
3465;SDS011;1747;48.884;9.160;2024-03-25T05:19:11;4.40;;;2.20;;
3465;SDS011;1747;48.884;9.160;2024-03-25T05:21:37;4.47;;;2.38;;
3465;SDS011;1747;48.884;9.160;2024-03-25T05:24:03;3.88;;;2.50;;
3465;SDS011;1747;48.884;9.160;2024-03-25T05:26:29;5.95;;;3.17;;
3465;SDS011;1747;48.884;9.160;2024-03-25T05:28:55;4.78;;;2.10;;
3465;SDS011;1747;48.884;9.160;2024-03-25T05:31:22;5.65;;;2.40;;
3465;SDS011;1747;48.884;9.160;2024-03-25T05:33:48;5.47;;;2.60;;
3465;SDS011;1747;48.884;9.160;2024-03-25T05:36:16;4.25;;;2.30;;
3465;SDS011;1747;48.884;9.160;2024-03-25T05:38:42;5.10;;;2.47;;
3465;SDS011;1747;48.884;9.160;2024-03-25T05:41:08;4.57;;;2.17;;
3465;SDS011;1747;48.884;9.160;2024-03-25T05:43:34;5.00;;;2.10;;
3465;SDS011;1747;48.884;9.160;2024-03-25T05:45:59;7.40;;;2.25;;
3465;SDS011;1747;48.884;9.160;2024-03-25T05:48:25;5.38;;;2.90;;
3465;SDS011;1747;48.884;9.160;2024-03-25T05:50:58;3.50;;;1.75;;
3465;SDS011;1747;48.884;9.160;2024-03-25T05:53:26;3.88;;;1.77;;
3465;SDS011;1747;48.884;9.160;2024-03-25T05:55:52;5.03;;;1.98;;
3465;SDS011;1747;48.884;9.160;2024-03-25T05:58:18;8.48;;;2.55;;
3465;SDS011;1747;48.884;9.160;2024-03-25T06:00:46;5.32;;;2.25;;
3465;SDS011;1747;48.884;9.160;2024-03-25T06:03:12;3.25;;;1.83;;
3465;SDS011;1747;48.884;9.160;2024-03-25T06:05:38;3.72;;;2.42;;
3465;SDS011;1747;48.884;9.160;2024-03-25T06:08:04;3.50;;;1.98;;
3465;SDS011;1747;48.884;9.160;2024-03-25T06:10:35;5.45;;;2.25;;
3465;SDS011;1747;48.884;9.160;2024-03-25T06:13:02;8.48;;;2.30;;
3465;SDS011;1747;48.884;9.160;2024-03-25T06:15:28;6.00;;;2.50;;
3465;SDS011;1747;48.884;9.160;2024-03-25T06:17:54;7.65;;;2.10;;
3465;SDS011;1747;48.884;9.160;2024-03-25T06:20:20;7.45;;;2.55;;
3465;SDS011;1747;48.884;9.160;2024-03-25T06:22:46;5.43;;;2.25;;
3465;SDS011;1747;48.884;9.160;2024-03-25T06:25:12;5.63;;;2.50;;
3465;SDS011;1747;48.884;9.160;2024-03-25T06:27:39;6.28;;;2.90;;
3465;SDS011;1747;48.884;9.160;2024-03-25T06:30:06;6.35;;;2.47;;
3465;SDS011;1747;48.884;9.160;2024-03-25T06:32:56;4.72;;;2.70;;
3465;SDS011;1747;48.884;9.160;2024-03-25T06:35:42;7.97;;;3.45;;
3465;SDS011;1747;48.884;9.160;2024-03-25T06:38:08;4.68;;;2.58;;
3465;SDS011;1747;48.884;9.160;2024-03-25T06:40:34;5.40;;;2.22;;
3465;SDS011;1747;48.884;9.160;2024-03-25T06:43:02;9.88;;;2.78;;
3465;SDS011;1747;48.884;9.160;2024-03-25T06:45:28;7.43;;;2.70;;
3465;SDS011;1747;48.884;9.160;2024-03-25T06:47:54;4.93;;;2.70;;
3465;SDS011;1747;48.884;9.160;2024-03-25T06:50:20;5.07;;;2.60;;
3465;SDS011;1747;48.884;9.160;2024-03-25T06:52:46;6.57;;;2.58;;
3465;SDS011;1747;48.884;9.160;2024-03-25T06:55:12;7.88;;;2.72;;
3465;SDS011;1747;48.884;9.160;2024-03-25T06:57:38;8.73;;;2.90;;
3465;SDS011;1747;48.884;9.160;2024-03-25T07:00:06;6.88;;;2.50;;
3465;SDS011;1747;48.884;9.160;2024-03-25T07:02:32;6.03;;;2.70;;
3465;SDS011;1747;48.884;9.160;2024-03-25T07:04:58;7.85;;;2.70;;
3465;SDS011;1747;48.884;9.160;2024-03-25T07:07:24;5.05;;;2.70;;
3465;SDS011;1747;48.884;9.160;2024-03-25T07:09:50;5.10;;;2.85;;
3465;SDS011;1747;48.884;9.160;2024-03-25T07:12:16;5.65;;;2.97;;
3465;SDS011;1747;48.884;9.160;2024-03-25T07:14:42;6.45;;;2.50;;
3465;SDS011;1747;48.884;9.160;2024-03-25T07:17:09;5.82;;;2.83;;
3465;SDS011;1747;48.884;9.160;2024-03-25T07:19:35;7.25;;;2.28;;
3465;SDS011;1747;48.884;9.160;2024-03-25T07:22:01;4.57;;;2.80;;
3465;SDS011;1747;48.884;9.160;2024-03-25T07:24:27;8.02;;;2.78;;
3465;SDS011;1747;48.884;9.160;2024-03-25T07:26:53;4.15;;;2.42;;
3465;SDS011;1747;48.884;9.160;2024-03-25T07:29:19;5.47;;;2.72;;
3465;SDS011;1747;48.884;9.160;2024-03-25T07:31:44;7.20;;;2.92;;
3465;SDS011;1747;48.884;9.160;2024-03-25T07:34:12;5.57;;;2.70;;
3465;SDS011;1747;48.884;9.160;2024-03-25T07:36:38;7.05;;;2.75;;
3465;SDS011;1747;48.884;9.160;2024-03-25T07:39:04;10.27;;;2.88;;
3465;SDS011;1747;48.884;9.160;2024-03-25T07:41:30;5.28;;;2.50;;
3465;SDS011;1747;48.884;9.160;2024-03-25T07:43:56;6.25;;;2.42;;
3465;SDS011;1747;48.884;9.160;2024-03-25T07:46:22;7.88;;;2.35;;
3465;SDS011;1747;48.884;9.160;2024-03-25T07:48:48;5.15;;;2.28;;
3465;SDS011;1747;48.884;9.160;2024-03-25T07:51:15;4.97;;;2.17;;
3465;SDS011;1747;48.884;9.160;2024-03-25T07:53:41;4.00;;;1.80;;
3465;SDS011;1747;48.884;9.160;2024-03-25T07:56:07;4.43;;;1.88;;
3465;SDS011;1747;48.884;9.160;2024-03-25T07:58:33;3.95;;;1.70;;
3465;SDS011;1747;48.884;9.160;2024-03-25T08:00:58;4.30;;;1.63;;
3465;SDS011;1747;48.884;9.160;2024-03-25T08:03:24;2.75;;;1.67;;
3465;SDS011;1747;48.884;9.160;2024-03-25T08:05:50;6.85;;;2.03;;
3465;SDS011;1747;48.884;9.160;2024-03-25T08:08:17;4.53;;;1.92;;
3465;SDS011;1747;48.884;9.160;2024-03-25T08:10:43;4.32;;;1.90;;
3465;SDS011;1747;48.884;9.160;2024-03-25T08:13:10;5.05;;;1.92;;
3465;SDS011;1747;48.884;9.160;2024-03-25T08:15:36;7.55;;;1.85;;
3465;SDS011;1747;48.884;9.160;2024-03-25T08:18:02;6.95;;;1.77;;
3465;SDS011;1747;48.884;9.160;2024-03-25T08:20:29;4.45;;;1.60;;
3465;SDS011;1747;48.884;9.160;2024-03-25T08:22:55;6.50;;;1.98;;
3465;SDS011;1747;48.884;9.160;2024-03-25T08:25:22;5.80;;;2.35;;
3465;SDS011;1747;48.884;9.160;2024-03-25T08:27:48;5.75;;;1.73;;
3465;SDS011;1747;48.884;9.160;2024-03-25T08:30:14;4.13;;;1.88;;
3465;SDS011;1747;48.884;9.160;2024-03-25T08:32:40;6.72;;;2.03;;
3465;SDS011;1747;48.884;9.160;2024-03-25T08:35:06;3.70;;;1.50;;
3465;SDS011;1747;48.884;9.160;2024-03-25T08:37:32;7.60;;;1.45;;
3465;SDS011;1747;48.884;9.160;2024-03-25T08:39:58;4.60;;;1.55;;
3465;SDS011;1747;48.884;9.160;2024-03-25T08:42:25;7.10;;;3.17;;
3465;SDS011;1747;48.884;9.160;2024-03-25T08:44:51;3.10;;;1.70;;
3465;SDS011;1747;48.884;9.160;2024-03-25T08:47:17;5.40;;;1.77;;
3465;SDS011;1747;48.884;9.160;2024-03-25T08:49:43;5.20;;;1.58;;
3465;SDS011;1747;48.884;9.160;2024-03-25T08:52:08;2.88;;;1.73;;
3465;SDS011;1747;48.884;9.160;2024-03-25T08:54:34;3.58;;;1.65;;
3465;SDS011;1747;48.884;9.160;2024-03-25T08:57:00;4.00;;;1.75;;
3465;SDS011;1747;48.884;9.160;2024-03-25T08:59:27;6.70;;;1.50;;
3465;SDS011;1747;48.884;9.160;2024-03-25T09:01:53;8.73;;;1.70;;
3465;SDS011;1747;48.884;9.160;2024-03-25T09:04:19;4.00;;;1.67;;
3465;SDS011;1747;48.884;9.160;2024-03-25T09:06:45;3.15;;;1.50;;
3465;SDS011;1747;48.884;9.160;2024-03-25T09:09:11;6.80;;;1.90;;
3465;SDS011;1747;48.884;9.160;2024-03-25T09:11:55;4.45;;;1.73;;
3465;SDS011;1747;48.884;9.160;2024-03-25T09:14:21;3.95;;;1.50;;
3465;SDS011;1747;48.884;9.160;2024-03-25T09:16:49;4.38;;;1.50;;
3465;SDS011;1747;48.884;9.160;2024-03-25T09:19:15;6.32;;;1.48;;
3465;SDS011;1747;48.884;9.160;2024-03-25T09:21:41;5.13;;;1.20;;
3465;SDS011;1747;48.884;9.160;2024-03-25T09:24:07;5.40;;;2.15;;
3465;SDS011;1747;48.884;9.160;2024-03-25T09:26:33;3.15;;;1.20;;
3465;SDS011;1747;48.884;9.160;2024-03-25T09:28:59;2.25;;;1.20;;
3465;SDS011;1747;48.884;9.160;2024-03-25T09:31:25;4.03;;;1.60;;
3465;SDS011;1747;48.884;9.160;2024-03-25T09:33:52;3.08;;;1.30;;
3465;SDS011;1747;48.884;9.160;2024-03-25T09:36:18;3.25;;;1.17;;
3465;SDS011;1747;48.884;9.160;2024-03-25T09:38:45;4.10;;;1.17;;
3465;SDS011;1747;48.884;9.160;2024-03-25T09:41:12;5.22;;;1.48;;
3465;SDS011;1747;48.884;9.160;2024-03-25T09:43:40;2.45;;;1.08;;
3465;SDS011;1747;48.884;9.160;2024-03-25T09:46:10;2.85;;;1.33;;
3465;SDS011;1747;48.884;9.160;2024-03-25T09:48:36;1.50;;;1.10;;
3465;SDS011;1747;48.884;9.160;2024-03-25T09:51:04;3.35;;;1.60;;
3465;SDS011;1747;48.884;9.160;2024-03-25T09:53:30;2.75;;;1.25;;
3465;SDS011;1747;48.884;9.160;2024-03-25T09:55:56;2.88;;;0.93;;
3465;SDS011;1747;48.884;9.160;2024-03-25T09:58:22;3.20;;;1.48;;
3465;SDS011;1747;48.884;9.160;2024-03-25T10:00:51;2.83;;;1.10;;
3465;SDS011;1747;48.884;9.160;2024-03-25T10:03:17;3.22;;;1.15;;
3465;SDS011;1747;48.884;9.160;2024-03-25T12:03:25;4.05;;;1.70;;
3465;SDS011;1747;48.884;9.160;2024-03-25T12:05:51;6.20;;;1.90;;
3465;SDS011;1747;48.884;9.160;2024-03-25T12:08:17;4.13;;;1.65;;
3465;SDS011;1747;48.884;9.160;2024-03-25T12:10:43;3.83;;;1.70;;
3465;SDS011;1747;48.884;9.160;2024-03-25T12:13:27;3.03;;;1.58;;
3465;SDS011;1747;48.884;9.160;2024-03-25T12:15:53;2.40;;;1.60;;
3465;SDS011;1747;48.884;9.160;2024-03-25T12:18:20;3.42;;;1.67;;
3465;SDS011;1747;48.884;9.160;2024-03-25T12:20:47;3.83;;;1.85;;
3465;SDS011;1747;48.884;9.160;2024-03-25T12:23:14;6.90;;;1.92;;
3465;SDS011;1747;48.884;9.160;2024-03-25T12:25:40;3.03;;;1.88;;
3465;SDS011;1747;48.884;9.160;2024-03-25T12:28:08;3.63;;;2.10;;
3465;SDS011;1747;48.884;9.160;2024-03-25T12:30:34;3.83;;;1.90;;
3465;SDS011;1747;48.884;9.160;2024-03-25T12:33:14;3.78;;;1.85;;
3465;SDS011;1747;48.884;9.160;2024-03-25T12:35:40;4.15;;;2.13;;
3465;SDS011;1747;48.884;9.160;2024-03-25T12:38:07;4.82;;;1.80;;
3465;SDS011;1747;48.884;9.160;2024-03-25T12:40:33;2.33;;;1.65;;
3465;SDS011;1747;48.884;9.160;2024-03-25T12:42:59;3.80;;;1.95;;
3465;SDS011;1747;48.884;9.160;2024-03-25T12:45:25;4.25;;;1.90;;
3465;SDS011;1747;48.884;9.160;2024-03-25T12:47:51;2.67;;;1.55;;
3465;SDS011;1747;48.884;9.160;2024-03-25T12:50:17;4.20;;;2.28;;
3465;SDS011;1747;48.884;9.160;2024-03-25T12:52:44;2.80;;;2.17;;
3465;SDS011;1747;48.884;9.160;2024-03-25T12:55:13;2.70;;;1.73;;
3465;SDS011;1747;48.884;9.160;2024-03-25T12:57:41;2.85;;;1.70;;
3465;SDS011;1747;48.884;9.160;2024-03-25T13:00:07;3.42;;;1.98;;
3465;SDS011;1747;48.884;9.160;2024-03-25T13:02:34;4.68;;;1.65;;
3465;SDS011;1747;48.884;9.160;2024-03-25T13:05:00;4.10;;;2.03;;
3465;SDS011;1747;48.884;9.160;2024-03-25T13:07:26;4.50;;;2.20;;
3465;SDS011;1747;48.884;9.160;2024-03-25T13:09:52;4.65;;;2.30;;
3465;SDS011;1747;48.884;9.160;2024-03-25T13:12:19;4.90;;;1.90;;
3465;SDS011;1747;48.884;9.160;2024-03-25T13:14:45;4.50;;;1.88;;
3465;SDS011;1747;48.884;9.160;2024-03-25T13:17:11;4.63;;;1.75;;
3465;SDS011;1747;48.884;9.160;2024-03-25T13:19:37;3.63;;;1.90;;
3465;SDS011;1747;48.884;9.160;2024-03-25T13:22:03;2.92;;;1.73;;
3465;SDS011;1747;48.884;9.160;2024-03-25T13:24:29;2.33;;;1.77;;
3465;SDS011;1747;48.884;9.160;2024-03-25T13:26:55;4.68;;;1.67;;
3465;SDS011;1747;48.884;9.160;2024-03-25T13:29:22;3.35;;;1.58;;
3465;SDS011;1747;48.884;9.160;2024-03-25T13:31:48;4.93;;;2.45;;
3465;SDS011;1747;48.884;9.160;2024-03-25T13:34:14;4.07;;;1.80;;
3465;SDS011;1747;48.884;9.160;2024-03-25T13:36:40;3.63;;;1.98;;
3465;SDS011;1747;48.884;9.160;2024-03-25T13:39:06;4.15;;;1.90;;
3465;SDS011;1747;48.884;9.160;2024-03-25T13:41:32;3.47;;;2.13;;
3465;SDS011;1747;48.884;9.160;2024-03-25T13:43:58;3.67;;;1.92;;
3465;SDS011;1747;48.884;9.160;2024-03-25T13:46:25;2.67;;;1.73;;
3465;SDS011;1747;48.884;9.160;2024-03-25T13:48:51;2.83;;;1.70;;
3465;SDS011;1747;48.884;9.160;2024-03-25T13:51:17;2.88;;;1.88;;
3465;SDS011;1747;48.884;9.160;2024-03-25T13:53:43;1.67;;;1.55;;
3465;SDS011;1747;48.884;9.160;2024-03-25T13:56:09;2.15;;;1.70;;
3465;SDS011;1747;48.884;9.160;2024-03-25T13:58:35;3.25;;;1.80;;
3465;SDS011;1747;48.884;9.160;2024-03-25T14:01:01;2.78;;;1.75;;
3465;SDS011;1747;48.884;9.160;2024-03-25T14:03:28;5.53;;;1.95;;
3465;SDS011;1747;48.884;9.160;2024-03-25T14:05:54;2.83;;;1.60;;
3465;SDS011;1747;48.884;9.160;2024-03-25T14:08:20;4.45;;;1.60;;
3465;SDS011;1747;48.884;9.160;2024-03-25T14:10:56;3.13;;;1.60;;
3465;SDS011;1747;48.884;9.160;2024-03-25T14:13:22;3.05;;;1.73;;
3465;SDS011;1747;48.884;9.160;2024-03-25T14:15:48;3.05;;;1.58;;
3465;SDS011;1747;48.884;9.160;2024-03-25T14:18:14;1.83;;;1.73;;
3465;SDS011;1747;48.884;9.160;2024-03-25T14:20:42;2.95;;;1.35;;
3465;SDS011;1747;48.884;9.160;2024-03-25T14:23:08;3.22;;;1.60;;
3465;SDS011;1747;48.884;9.160;2024-03-25T14:25:34;2.28;;;1.60;;
3465;SDS011;1747;48.884;9.160;2024-03-25T14:28:00;2.03;;;1.35;;
3465;SDS011;1747;48.884;9.160;2024-03-25T14:30:26;3.30;;;1.60;;
3465;SDS011;1747;48.884;9.160;2024-03-25T14:32:52;2.88;;;1.40;;
3465;SDS011;1747;48.884;9.160;2024-03-25T14:35:18;2.28;;;1.45;;
3465;SDS011;1747;48.884;9.160;2024-03-25T14:37:45;2.58;;;1.42;;
3465;SDS011;1747;48.884;9.160;2024-03-25T14:40:11;2.92;;;1.40;;
3465;SDS011;1747;48.884;9.160;2024-03-25T14:42:38;3.55;;;1.80;;
3465;SDS011;1747;48.884;9.160;2024-03-25T14:45:04;2.95;;;1.48;;
3465;SDS011;1747;48.884;9.160;2024-03-25T14:47:30;4.90;;;1.77;;
3465;SDS011;1747;48.884;9.160;2024-03-25T14:50:06;2.38;;;1.70;;
3465;SDS011;1747;48.884;9.160;2024-03-25T14:52:34;2.53;;;1.73;;
3465;SDS011;1747;48.884;9.160;2024-03-25T14:55:02;2.42;;;1.52;;
3465;SDS011;1747;48.884;9.160;2024-03-25T14:57:28;3.63;;;1.85;;
3465;SDS011;1747;48.884;9.160;2024-03-25T14:59:54;2.85;;;1.45;;
3465;SDS011;1747;48.884;9.160;2024-03-25T15:02:19;2.72;;;1.33;;
3465;SDS011;1747;48.884;9.160;2024-03-25T15:04:45;2.38;;;1.42;;
3465;SDS011;1747;48.884;9.160;2024-03-25T15:07:11;3.85;;;1.55;;
3465;SDS011;1747;48.884;9.160;2024-03-25T15:09:37;1.85;;;1.48;;
3465;SDS011;1747;48.884;9.160;2024-03-25T15:12:05;1.60;;;1.13;;
3465;SDS011;1747;48.884;9.160;2024-03-25T15:14:31;3.47;;;1.60;;
3465;SDS011;1747;48.884;9.160;2024-03-25T15:16:57;3.00;;;1.45;;
3465;SDS011;1747;48.884;9.160;2024-03-25T15:19:23;3.75;;;1.67;;
3465;SDS011;1747;48.884;9.160;2024-03-25T15:21:49;2.58;;;1.58;;
3465;SDS011;1747;48.884;9.160;2024-03-25T15:24:15;3.13;;;1.55;;
3465;SDS011;1747;48.884;9.160;2024-03-25T15:26:41;3.92;;;1.58;;
3465;SDS011;1747;48.884;9.160;2024-03-25T15:29:08;2.47;;;1.33;;
3465;SDS011;1747;48.884;9.160;2024-03-25T15:31:34;2.60;;;1.40;;
3465;SDS011;1747;48.884;9.160;2024-03-25T15:34:00;3.03;;;1.55;;
3465;SDS011;1747;48.884;9.160;2024-03-25T15:36:26;2.28;;;1.45;;
3465;SDS011;1747;48.884;9.160;2024-03-25T15:38:52;1.90;;;1.35;;
3465;SDS011;1747;48.884;9.160;2024-03-25T15:41:18;3.42;;;1.65;;
3465;SDS011;1747;48.884;9.160;2024-03-25T15:43:44;1.33;;;1.17;;
3465;SDS011;1747;48.884;9.160;2024-03-25T15:46:12;2.47;;;1.52;;
3465;SDS011;1747;48.884;9.160;2024-03-25T15:48:38;2.65;;;1.50;;
3465;SDS011;1747;48.884;9.160;2024-03-25T15:51:03;1.83;;;1.45;;
3465;SDS011;1747;48.884;9.160;2024-03-25T15:53:29;4.00;;;1.70;;
3465;SDS011;1747;48.884;9.160;2024-03-25T15:55:55;4.15;;;1.42;;
3465;SDS011;1747;48.884;9.160;2024-03-25T15:58:21;3.08;;;1.40;;
3465;SDS011;1747;48.884;9.160;2024-03-25T16:00:47;2.72;;;1.60;;
3465;SDS011;1747;48.884;9.160;2024-03-25T16:03:15;2.97;;;1.40;;
3465;SDS011;1747;48.884;9.160;2024-03-25T16:05:41;3.20;;;1.45;;
3465;SDS011;1747;48.884;9.160;2024-03-25T16:08:07;4.18;;;1.50;;
3465;SDS011;1747;48.884;9.160;2024-03-25T16:10:33;1.85;;;1.30;;
3465;SDS011;1747;48.884;9.160;2024-03-25T16:13:00;4.13;;;1.40;;
3465;SDS011;1747;48.884;9.160;2024-03-25T16:15:27;2.92;;;1.48;;
3465;SDS011;1747;48.884;9.160;2024-03-25T16:17:53;4.30;;;1.90;;
3465;SDS011;1747;48.884;9.160;2024-03-25T16:20:21;3.65;;;2.00;;
3465;SDS011;1747;48.884;9.160;2024-03-25T16:22:47;2.60;;;1.70;;
3465;SDS011;1747;48.884;9.160;2024-03-25T16:25:13;3.60;;;1.70;;
3465;SDS011;1747;48.884;9.160;2024-03-25T16:27:39;2.55;;;1.42;;
3465;SDS011;1747;48.884;9.160;2024-03-25T16:30:05;2.33;;;1.60;;
3465;SDS011;1747;48.884;9.160;2024-03-25T16:32:32;2.35;;;1.75;;
3465;SDS011;1747;48.884;9.160;2024-03-25T16:34:58;3.65;;;1.60;;
3465;SDS011;1747;48.884;9.160;2024-03-25T16:37:25;2.67;;;1.50;;
3465;SDS011;1747;48.884;9.160;2024-03-25T16:39:51;3.65;;;1.60;;
3465;SDS011;1747;48.884;9.160;2024-03-25T16:42:17;2.42;;;1.50;;
3465;SDS011;1747;48.884;9.160;2024-03-25T16:44:43;2.38;;;1.65;;
3465;SDS011;1747;48.884;9.160;2024-03-25T16:47:09;2.95;;;1.58;;
3465;SDS011;1747;48.884;9.160;2024-03-25T16:49:35;3.22;;;1.90;;
3465;SDS011;1747;48.884;9.160;2024-03-25T16:52:01;3.45;;;1.85;;
3465;SDS011;1747;48.884;9.160;2024-03-25T16:54:29;3.78;;;1.52;;
3465;SDS011;1747;48.884;9.160;2024-03-25T16:56:54;2.92;;;1.55;;
3465;SDS011;1747;48.884;9.160;2024-03-25T16:59:21;2.88;;;1.70;;
3465;SDS011;1747;48.884;9.160;2024-03-25T17:01:47;4.45;;;2.03;;
3465;SDS011;1747;48.884;9.160;2024-03-25T17:04:13;4.60;;;1.60;;
3465;SDS011;1747;48.884;9.160;2024-03-25T17:06:39;2.22;;;1.52;;
3465;SDS011;1747;48.884;9.160;2024-03-25T17:09:05;2.25;;;1.98;;